createdAt,value
2022-10-06T00:02:13.039Z,101593.69
2022-10-06T00:04:39.612Z,101590.97
2022-10-06T00:07:05.847Z,101597.16
2022-10-06T00:09:32.154Z,101598.97
2022-10-06T00:11:59.055Z,101595.72
2022-10-06T00:14:25.549Z,101599.28
2022-10-06T00:16:51.778Z,101588.09
2022-10-06T00:19:18.294Z,101582.25
2022-10-06T00:21:45.160Z,101588.47
2022-10-06T00:24:11.429Z,101576.28
2022-10-06T00:26:37.979Z,101583.38
2022-10-06T00:29:04.887Z,101581.81
2022-10-06T00:31:31.215Z,101578.41
2022-10-06T00:33:57.768Z,101577.72
2022-10-06T00:36:24.005Z,101565.31
2022-10-06T00:38:50.339Z,101579.88
2022-10-06T00:41:17.611Z,101567.66
2022-10-06T00:43:52.660Z,101574.00
2022-10-06T00:46:27.974Z,101577.56
2022-10-06T00:49:08.215Z,101569.88
2022-10-06T00:51:36.928Z,101547.03
2022-10-06T00:54:03.732Z,101571.03
2022-10-06T00:56:29.997Z,101565.94
2022-10-06T00:58:56.765Z,101567.78
2022-10-06T01:01:23.246Z,101570.62
2022-10-06T01:03:55.746Z,101564.69
2022-10-06T01:06:22.284Z,101557.06
2022-10-06T01:08:48.937Z,101564.94
2022-10-06T01:11:15.274Z,101562.59
2022-10-06T01:13:44.292Z,101563.62
2022-10-06T01:16:23.510Z,101568.91
2022-10-06T01:18:50.155Z,101568.97
2022-10-06T01:21:27.967Z,101568.13
2022-10-06T01:23:54.690Z,101569.13
2022-10-06T01:26:22.246Z,101558.03
2022-10-06T01:28:49.299Z,101566.84
2022-10-06T01:31:16.085Z,101568.59
2022-10-06T01:33:42.579Z,101567.81
2022-10-06T01:36:09.094Z,101565.22
2022-10-06T01:38:36.587Z,101570.44
2022-10-06T01:41:03.013Z,101556.78
2022-10-06T01:43:29.334Z,101571.59
2022-10-06T01:45:57.024Z,101571.56
2022-10-06T01:48:23.905Z,101574.16
2022-10-06T01:50:50.553Z,101571.47
2022-10-06T01:53:18.074Z,101576.69
2022-10-06T01:55:44.314Z,101575.78
2022-10-06T01:58:11.566Z,101573.19
2022-10-06T02:00:39.917Z,101579.94
2022-10-06T02:03:07.629Z,101578.06
2022-10-06T02:05:34.545Z,101584.84
2022-10-06T02:08:02.396Z,101581.19
2022-10-06T02:10:29.488Z,101580.34
2022-10-06T02:12:57.300Z,101584.66
2022-10-06T02:15:23.627Z,101553.31
2022-10-06T02:17:50.816Z,101589.87
2022-10-06T02:20:17.102Z,101592.31
2022-10-06T02:22:43.846Z,101586.06
2022-10-06T02:25:11.969Z,101584.28
2022-10-06T02:27:38.993Z,101582.37
2022-10-06T02:30:07.284Z,101575.53
2022-10-06T02:32:38.987Z,101548.63
2022-10-06T02:35:06.854Z,101583.56
2022-10-06T02:37:34.053Z,101581.97
2022-10-06T02:40:00.940Z,101566.00
2022-10-06T02:42:28.865Z,101585.78
2022-10-06T02:44:55.129Z,101589.41
2022-10-06T02:47:22.312Z,101592.22
2022-10-06T02:49:48.826Z,101577.03
2022-10-06T02:52:15.498Z,101594.31
2022-10-06T02:54:42.307Z,101593.69
2022-10-06T02:57:09.369Z,101591.97
2022-10-06T02:59:36.447Z,101595.47
2022-10-06T03:02:03.611Z,101598.22
2022-10-06T03:04:30.482Z,101592.31
2022-10-06T03:06:57.279Z,101591.50
2022-10-06T03:09:23.827Z,101596.78
2022-10-06T03:11:51.164Z,101592.59
2022-10-06T03:14:21.620Z,101596.19
2022-10-06T03:16:50.242Z,101598.12
2022-10-06T03:19:18.225Z,101575.47
2022-10-06T03:21:45.039Z,101592.47
2022-10-06T03:24:11.874Z,101601.31
2022-10-06T03:26:40.821Z,101603.16
2022-10-06T03:29:11.314Z,101598.03
2022-10-06T03:31:39.893Z,101580.38
2022-10-06T03:34:07.822Z,101599.06
2022-10-06T03:36:35.010Z,101607.94
2022-10-06T03:39:04.006Z,101604.53
2022-10-06T03:41:32.441Z,101603.75
2022-10-06T03:43:59.967Z,101607.25
2022-10-06T03:46:29.015Z,101602.97
2022-10-06T03:48:57.187Z,101609.09
2022-10-06T03:51:29.624Z,101612.63
2022-10-06T03:53:56.710Z,101605.69
2022-10-06T03:56:49.160Z,101607.44
2022-10-06T03:59:17.475Z,101616.25
2022-10-06T04:01:46.362Z,101610.28
2022-10-06T04:04:13.575Z,101608.53
2022-10-06T04:06:41.850Z,101604.22
2022-10-06T04:09:15.304Z,101611.34
2022-10-06T04:11:44.277Z,101612.22
2022-10-06T04:14:13.078Z,101610.66
2022-10-06T04:16:41.486Z,101608.09
2022-10-06T04:19:10.254Z,101598.12
2022-10-06T04:21:38.508Z,101613.50
2022-10-06T04:24:06.546Z,101612.69
2022-10-06T04:26:36.762Z,101619.81
2022-10-06T04:29:03.617Z,101594.38
2022-10-06T04:31:32.820Z,101609.50
2022-10-06T04:34:00.624Z,101614.72
2022-10-06T04:36:31.296Z,101613.91
2022-10-06T04:39:01.372Z,101614.72
2022-10-06T04:41:34.625Z,101612.87
2022-10-06T04:44:02.653Z,101616.28
2022-10-06T04:46:42.835Z,101614.59
2022-10-06T04:49:17.636Z,101612.09
2022-10-06T04:51:46.952Z,101612.97
2022-10-06T04:54:13.263Z,101604.09
2022-10-06T04:56:39.543Z,101587.81
2022-10-06T04:59:06.121Z,101606.34
2022-10-06T05:01:34.801Z,101606.28
2022-10-06T05:04:03.092Z,101608.00
2022-10-06T05:06:32.938Z,101610.66
2022-10-06T05:09:06.505Z,101589.50
2022-10-06T05:11:33.646Z,101610.66
2022-10-06T05:14:00.490Z,101613.09
2022-10-06T05:16:28.717Z,101596.91
2022-10-06T05:18:55.827Z,101613.63
2022-10-06T05:21:24.572Z,101610.91
2022-10-06T05:23:51.310Z,101619.41
2022-10-06T05:26:23.595Z,101592.00
2022-10-06T05:28:50.566Z,101619.81
2022-10-06T05:31:24.806Z,101617.72
2022-10-06T05:33:51.404Z,101608.12
2022-10-06T05:36:26.579Z,101623.91
2022-10-06T05:38:53.545Z,101625.94
2022-10-06T05:41:25.154Z,101632.50
2022-10-06T05:43:51.684Z,101624.28
2022-10-06T05:46:20.838Z,101634.28
2022-10-06T05:48:49.419Z,101639.81
2022-10-06T05:51:21.000Z,101638.44
2022-10-06T05:53:48.818Z,101628.53
2022-10-06T05:56:19.535Z,101635.50
2022-10-06T05:58:51.217Z,101634.09
2022-10-06T06:01:28.650Z,101635.22
2022-10-06T06:04:03.261Z,101652.06
2022-10-06T06:06:34.954Z,101631.56
2022-10-06T06:09:09.281Z,101642.84
2022-10-06T06:11:38.705Z,101648.22
2022-10-06T06:14:13.604Z,101636.81
2022-10-06T06:16:41.699Z,101658.25
2022-10-06T06:19:09.641Z,101651.53
2022-10-06T06:21:36.818Z,101656.13
2022-10-06T06:24:04.058Z,101653.09
2022-10-06T06:26:33.587Z,101662.16
2022-10-06T06:29:04.293Z,101666.88
2022-10-06T06:31:35.887Z,101641.75
2022-10-06T06:34:04.674Z,101659.84
2022-10-06T06:36:36.872Z,101645.12
2022-10-06T06:39:08.363Z,101649.63
2022-10-06T06:41:40.022Z,101666.03
2022-10-06T06:44:08.471Z,101662.91
2022-10-06T06:49:07.359Z,101664.75
2022-10-06T06:51:36.802Z,101666.66
2022-10-06T06:54:05.016Z,101662.34
2022-10-06T06:56:35.247Z,101669.41
2022-10-06T06:59:03.450Z,101675.66
2022-10-06T07:01:30.881Z,101668.94
2022-10-06T07:03:59.306Z,101681.72
2022-10-06T07:06:31.158Z,101670.28
2022-10-06T07:08:59.490Z,101680.66
2022-10-06T07:11:26.904Z,101682.94
2022-10-06T07:13:55.923Z,101666.19
2022-10-06T07:16:41.690Z,101677.22
2022-10-06T07:19:28.709Z,101669.44
2022-10-06T07:22:17.027Z,101675.13
2022-10-06T07:25:02.458Z,101675.66
2022-10-06T07:27:30.360Z,101679.38
2022-10-06T07:29:57.347Z,101679.12
2022-10-06T07:32:25.849Z,101675.47
2022-10-06T07:34:53.875Z,101655.66
2022-10-06T07:37:21.144Z,101676.09
2022-10-06T07:39:49.700Z,101682.81
2022-10-06T07:42:17.956Z,101680.63
2022-10-06T07:45:05.544Z,101685.88
2022-10-06T07:47:33.088Z,101684.63
2022-10-06T07:49:59.602Z,101684.31
2022-10-06T07:52:28.863Z,101684.31
2022-10-06T07:54:58.392Z,101678.97
2022-10-06T07:57:34.691Z,101680.72
2022-10-06T08:00:05.295Z,101680.28
2022-10-06T08:02:39.218Z,101691.00
2022-10-06T08:05:08.279Z,101683.12
2022-10-06T08:07:35.044Z,101694.63
2022-10-06T08:10:01.383Z,101684.00
2022-10-06T08:12:33.892Z,101693.94
2022-10-06T08:15:08.419Z,101669.97
2022-10-06T08:17:39.579Z,101699.13
2022-10-06T08:20:13.120Z,101701.53
2022-10-06T08:22:40.192Z,101696.66
2022-10-06T08:25:09.278Z,101696.62
2022-10-06T08:27:37.023Z,101705.25
2022-10-06T08:30:05.905Z,101682.50
2022-10-06T08:32:32.882Z,101706.53
2022-10-06T08:35:01.539Z,101700.06
2022-10-06T08:37:28.044Z,101693.66
2022-10-06T08:39:54.896Z,101691.34
2022-10-06T08:42:39.944Z,101682.19
2022-10-06T08:45:17.773Z,101686.59
2022-10-06T08:47:53.155Z,101682.13
2022-10-06T08:50:21.323Z,101683.66
2022-10-06T08:53:11.761Z,101693.09
2022-10-06T08:55:47.803Z,101689.34
2022-10-06T08:58:23.136Z,101694.97
2022-10-06T09:00:49.763Z,101670.63
2022-10-06T09:03:24.320Z,101687.66
2022-10-06T09:05:53.017Z,101689.12
2022-10-06T09:08:43.774Z,101688.88
2022-10-06T09:11:28.487Z,101692.03
2022-10-06T09:14:17.353Z,101685.81
2022-10-06T09:16:48.411Z,101690.75
2022-10-06T09:19:21.288Z,101689.09
2022-10-06T09:21:52.648Z,101691.09
2022-10-06T09:24:34.834Z,101666.16
2022-10-06T09:27:33.729Z,101678.34
2022-10-06T09:30:01.275Z,101688.66
2022-10-06T09:32:28.785Z,101692.06
2022-10-06T09:34:57.393Z,101683.41
2022-10-06T09:37:23.678Z,101688.00
2022-10-06T09:39:51.793Z,101696.03
2022-10-06T09:42:24.028Z,101684.69
2022-10-06T09:44:51.053Z,101679.22
2022-10-06T09:47:32.289Z,101695.59
2022-10-06T09:50:21.945Z,101703.75
2022-10-06T09:52:57.521Z,101698.19
2022-10-06T09:55:33.924Z,101693.72
2022-10-06T09:58:15.675Z,101667.78
2022-10-06T10:00:47.058Z,101691.97
2022-10-06T10:03:13.674Z,101683.50
2022-10-06T10:05:47.390Z,101683.56
2022-10-06T10:08:13.879Z,101680.50
2022-10-06T10:10:40.937Z,101679.31
2022-10-06T10:13:26.679Z,101680.75
2022-10-06T10:16:01.709Z,101684.41
2022-10-06T10:18:30.353Z,101674.37
2022-10-06T10:20:59.647Z,101676.28
2022-10-06T10:23:42.712Z,101671.84
2022-10-06T10:26:21.323Z,101668.59
2022-10-06T10:29:10.497Z,101672.78
2022-10-06T10:31:43.887Z,101662.12
2022-10-06T10:34:31.070Z,101656.53
2022-10-06T10:37:12.292Z,101649.94
2022-10-06T10:39:48.478Z,101646.19
2022-10-06T10:42:41.508Z,101649.16
2022-10-06T10:45:17.158Z,101659.12
2022-10-06T10:47:45.496Z,101655.31
2022-10-06T10:50:25.321Z,101665.62
2022-10-06T10:52:56.313Z,101663.97
2022-10-06T10:55:31.370Z,101661.59
2022-10-06T10:58:27.507Z,101654.28
2022-10-06T11:00:56.763Z,101653.69
2022-10-06T11:03:23.505Z,101655.44
2022-10-06T11:06:53.826Z,101650.34
2022-10-06T11:09:29.032Z,101642.81
2022-10-06T11:12:25.055Z,101648.47
2022-10-06T11:15:02.326Z,101639.72
2022-10-06T11:17:46.901Z,101646.00
2022-10-06T11:20:23.482Z,101629.78
2022-10-06T11:23:22.330Z,101643.78
2022-10-06T11:26:03.836Z,101638.78
2022-10-06T11:28:48.394Z,101624.72
2022-10-06T11:31:41.172Z,101625.56
2022-10-06T11:34:08.410Z,101629.94
2022-10-06T11:37:01.661Z,101620.91
2022-10-06T11:39:49.358Z,101620.44
2022-10-06T11:42:35.988Z,101611.06
2022-10-06T11:45:06.084Z,101617.72
2022-10-06T11:48:00.129Z,101610.50
2022-10-06T11:50:35.829Z,101603.56
2022-10-06T11:53:03.325Z,101605.78
2022-10-06T11:55:30.027Z,101586.41
2022-10-06T11:58:12.684Z,101600.75
2022-10-06T12:00:50.405Z,101601.56
2022-10-06T12:03:44.647Z,101600.66
2022-10-06T12:06:42.827Z,101580.59
2022-10-06T12:09:39.560Z,101592.72
2022-10-06T12:12:15.091Z,101600.56
2022-10-06T12:17:47.111Z,101596.06
2022-10-06T12:20:39.240Z,101596.19
2022-10-06T12:23:08.231Z,101598.19
2022-10-06T12:25:59.911Z,101585.56
2022-10-06T12:28:36.907Z,101587.03
2022-10-06T12:31:18.460Z,101567.00
2022-10-06T12:33:45.333Z,101575.97
2022-10-06T12:36:23.690Z,101573.41
2022-10-06T12:39:02.449Z,101600.50
2022-10-06T12:41:54.066Z,101611.06
2022-10-06T12:44:33.816Z,101591.41
2022-10-06T12:47:03.999Z,101600.13
2022-10-06T12:50:00.501Z,101598.47
2022-10-06T12:52:55.915Z,101604.75
2022-10-06T12:55:47.137Z,101604.59
2022-10-06T12:58:24.064Z,101603.34
2022-10-06T13:00:50.366Z,101604.19
2022-10-06T13:03:19.969Z,101588.09
2022-10-06T13:05:52.075Z,101590.75
2022-10-06T13:08:29.671Z,101589.66
2022-10-06T13:11:12.378Z,101605.63
2022-10-06T13:13:46.820Z,101598.06
2022-10-06T13:16:14.706Z,101596.94
2022-10-06T13:18:41.455Z,101598.03
2022-10-06T13:21:16.092Z,101589.63
2022-10-06T13:23:43.461Z,101594.69
2022-10-06T13:26:23.917Z,101598.84
2022-10-06T13:28:55.161Z,101595.75
2022-10-06T13:31:30.219Z,101599.09
2022-10-06T13:34:02.845Z,101589.31
2022-10-06T13:36:30.685Z,101596.78
2022-10-06T13:38:57.291Z,101604.59
2022-10-06T13:41:38.181Z,101595.50
2022-10-06T13:44:14.873Z,101598.75
2022-10-06T13:46:50.179Z,101600.22
2022-10-06T13:49:21.692Z,101584.72
2022-10-06T13:51:51.118Z,101598.03
2022-10-06T13:54:24.532Z,101574.50
2022-10-06T13:56:51.018Z,101591.59
2022-10-06T13:59:33.540Z,101604.34
2022-10-06T14:02:36.470Z,101606.59
2022-10-06T14:05:39.370Z,101601.50
2022-10-06T14:08:11.529Z,101600.72
2022-10-06T14:10:41.065Z,101611.97
2022-10-06T14:13:33.287Z,101604.94
2022-10-06T14:16:04.961Z,101605.72
2022-10-06T14:18:37.845Z,101586.53
2022-10-06T14:21:41.384Z,101589.34
2022-10-06T14:24:16.463Z,101606.06
2022-10-06T14:26:44.197Z,101611.53
2022-10-06T14:29:10.522Z,101602.78
2022-10-06T14:31:36.894Z,101611.62
2022-10-06T14:34:04.197Z,101600.69
2022-10-06T14:36:36.864Z,101584.12
2022-10-06T14:39:05.653Z,101595.94
2022-10-06T14:41:32.986Z,101616.13
2022-10-06T14:44:01.856Z,101610.88
2022-10-06T14:46:29.065Z,101615.94
2022-10-06T14:48:56.170Z,101612.84
2022-10-06T14:51:24.473Z,101615.00
2022-10-06T14:53:55.031Z,101618.75
2022-10-06T14:56:23.878Z,101610.81
2022-10-06T14:58:50.899Z,101623.09
2022-10-06T15:01:19.279Z,101611.16
2022-10-06T15:03:56.686Z,101623.94
2022-10-06T15:06:41.882Z,101618.03
2022-10-06T15:09:08.732Z,101621.06
2022-10-06T15:11:35.427Z,101618.03
2022-10-06T15:14:02.517Z,101635.50
2022-10-06T15:16:30.095Z,101630.94
2022-10-06T15:18:58.330Z,101639.34
2022-10-06T15:21:24.822Z,101642.19
2022-10-06T15:23:59.566Z,101638.81
2022-10-06T15:26:45.030Z,101637.37
2022-10-06T15:29:13.352Z,101651.06
2022-10-06T15:31:41.650Z,101626.25
2022-10-06T15:34:11.127Z,101644.00
2022-10-06T15:36:39.650Z,101655.31
2022-10-06T15:39:05.952Z,101649.22
2022-10-06T15:41:33.779Z,101655.31
2022-10-06T15:44:00.440Z,101648.41
2022-10-06T15:46:33.110Z,101655.13
2022-10-06T15:49:02.220Z,101656.94
2022-10-06T15:51:44.847Z,101652.12
2022-10-06T15:54:12.547Z,101653.41
2022-10-06T15:56:38.799Z,101653.03
2022-10-06T15:59:05.891Z,101648.91
2022-10-06T16:01:35.626Z,101656.72
2022-10-06T16:04:12.027Z,101668.91
2022-10-06T16:06:49.962Z,101655.38
2022-10-06T16:09:19.690Z,101655.78
2022-10-06T16:11:47.265Z,101677.03
2022-10-06T16:14:14.587Z,101676.69
2022-10-06T16:16:43.866Z,101679.88
2022-10-06T16:19:10.740Z,101688.25
2022-10-06T16:21:36.963Z,101675.03
2022-10-06T16:24:03.593Z,101691.72
2022-10-06T16:26:30.060Z,101678.41
2022-10-06T16:28:56.339Z,101681.31
2022-10-06T16:31:23.368Z,101687.44
2022-10-06T16:33:50.012Z,101692.91
2022-10-06T16:36:17.521Z,101701.22
2022-10-06T16:38:44.198Z,101704.25
2022-10-06T16:41:10.488Z,101695.38
2022-10-06T16:47:30.835Z,101711.28
2022-10-06T16:49:57.360Z,101709.88
2022-10-06T16:52:23.621Z,101704.91
2022-10-06T16:54:49.853Z,101706.22
2022-10-06T16:57:16.361Z,101711.50
2022-10-06T16:59:46.638Z,101723.00
2022-10-06T17:02:14.054Z,101717.81
2022-10-06T17:04:40.634Z,101719.22
2022-10-06T17:07:06.866Z,101716.59
2022-10-06T17:09:33.106Z,101727.72
2022-10-06T17:12:01.869Z,101713.41
2022-10-06T17:14:30.432Z,101726.41
2022-10-06T17:16:57.302Z,101717.09
2022-10-06T17:19:26.256Z,101729.13
2022-10-06T17:21:58.272Z,101730.16
2022-10-06T17:24:27.830Z,101725.09
2022-10-06T17:26:54.850Z,101726.03
2022-10-06T17:29:22.210Z,101726.22
2022-10-06T17:31:50.863Z,101718.88
2022-10-06T17:34:21.711Z,101723.03
2022-10-06T17:36:50.854Z,101725.66
2022-10-06T17:39:19.643Z,101730.28
2022-10-06T17:41:46.940Z,101733.94
2022-10-06T17:44:22.459Z,101716.25
2022-10-06T17:46:50.979Z,101712.28
2022-10-06T17:49:20.633Z,101721.84
2022-10-06T17:51:47.903Z,101730.38
2022-10-06T17:54:19.707Z,101720.66
2022-10-06T17:56:48.868Z,101732.59
2022-10-06T17:59:17.579Z,101734.66
2022-10-06T18:01:46.683Z,101740.19
2022-10-06T18:04:17.257Z,101738.78
2022-10-06T18:06:44.570Z,101737.25
2022-10-06T18:09:11.418Z,101744.59
2022-10-06T18:11:39.765Z,101745.81
2022-10-06T18:14:26.818Z,101734.03
2022-10-06T18:16:59.047Z,101739.22
2022-10-06T18:19:30.553Z,101733.41
2022-10-06T18:22:10.629Z,101737.88
2022-10-06T18:24:37.200Z,101717.81
2022-10-06T18:27:05.961Z,101726.66
2022-10-06T18:29:34.342Z,101740.47
2022-10-06T18:32:27.296Z,101748.53
2022-10-06T18:37:34.861Z,101748.22
2022-10-06T18:40:05.281Z,101729.50
2022-10-06T18:42:31.624Z,101756.28
2022-10-06T18:45:16.390Z,101751.97
2022-10-06T18:48:01.588Z,101751.38
2022-10-06T18:50:27.839Z,101756.63
2022-10-06T18:52:56.455Z,101758.53
2022-10-06T18:55:23.436Z,101746.81
2022-10-06T18:57:50.349Z,101754.53
2022-10-06T19:00:17.465Z,101751.16
2022-10-06T19:02:48.133Z,101733.44
2022-10-06T19:05:14.830Z,101751.50
2022-10-06T19:07:41.673Z,101748.97
2022-10-06T19:10:08.364Z,101745.66
2022-10-06T19:12:34.612Z,101747.53
2022-10-06T19:15:01.232Z,101731.50
2022-10-06T19:17:27.872Z,101738.34
2022-10-06T19:19:55.947Z,101737.69
2022-10-06T19:22:24.678Z,101733.62
2022-10-06T19:24:51.137Z,101743.47
2022-10-06T19:27:20.713Z,101751.59
2022-10-06T19:29:53.073Z,101740.00
2022-10-06T19:32:21.721Z,101752.44
2022-10-06T19:34:48.521Z,101762.00
2022-10-06T19:37:15.724Z,101733.25
2022-10-06T19:39:44.363Z,101763.25
2022-10-06T19:42:30.979Z,101764.34
2022-10-06T19:44:57.259Z,101766.38
2022-10-06T19:47:23.895Z,101759.34
2022-10-06T19:49:50.160Z,101772.22
2022-10-06T19:52:16.747Z,101769.00
2022-10-06T19:54:43.339Z,101776.28
2022-10-06T19:57:11.457Z,101778.22
2022-10-06T19:59:38.135Z,101775.84
2022-10-06T20:02:08.065Z,101751.56
2022-10-06T20:04:35.119Z,101785.03
2022-10-06T20:07:01.825Z,101763.13
2022-10-06T20:09:29.287Z,101778.56
2022-10-06T20:11:55.899Z,101787.38
2022-10-06T20:14:23.359Z,101788.34
2022-10-06T20:16:51.902Z,101792.00
2022-10-06T20:19:19.350Z,101791.06
2022-10-06T20:21:46.724Z,101793.53
2022-10-06T20:24:17.954Z,101783.97
2022-10-06T20:26:47.021Z,101792.44
2022-10-06T20:29:15.787Z,101788.28
2022-10-06T20:31:46.963Z,101788.44
2022-10-06T20:34:16.359Z,101770.81
2022-10-06T20:36:42.811Z,101786.91
2022-10-06T20:39:31.104Z,101785.22
2022-10-06T20:41:58.679Z,101783.50
2022-10-06T20:44:25.616Z,101778.28
2022-10-06T20:46:52.252Z,101781.75
2022-10-06T20:49:18.776Z,101788.75
2022-10-06T20:51:49.871Z,101793.94
2022-10-06T20:54:21.359Z,101794.78
2022-10-06T20:56:50.200Z,101777.66
2022-10-06T20:59:17.425Z,101800.50
2022-10-06T21:01:44.170Z,101781.75
2022-10-06T21:04:10.703Z,101795.47
2022-10-06T21:06:40.570Z,101795.41
2022-10-06T21:09:09.646Z,101797.09
2022-10-06T21:11:36.171Z,101799.03
2022-10-06T21:14:03.131Z,101803.44
2022-10-06T21:16:32.202Z,101802.47
2022-10-06T21:19:01.122Z,101807.72
2022-10-06T21:21:27.385Z,101805.97
2022-10-06T21:23:53.615Z,101792.25
2022-10-06T21:26:22.717Z,101809.28
2022-10-06T21:28:52.357Z,101811.06
2022-10-06T21:31:20.602Z,101816.31
2022-10-06T21:33:48.660Z,101816.31
2022-10-06T21:36:17.048Z,101799.97
2022-10-06T21:38:46.482Z,101810.06
2022-10-06T21:41:37.323Z,101790.31
2022-10-06T21:44:06.456Z,101803.13
2022-10-06T21:46:34.451Z,101803.13
2022-10-06T21:49:01.656Z,101804.97
2022-10-06T21:51:29.357Z,101800.88
2022-10-06T21:53:56.880Z,101809.34
2022-10-06T21:56:23.710Z,101771.03
2022-10-06T21:58:53.973Z,101809.34
2022-10-06T22:01:22.803Z,101807.56
2022-10-06T22:03:49.593Z,101801.56
2022-10-06T22:06:19.421Z,101800.19
2022-10-06T22:08:46.291Z,101796.63
2022-10-06T22:11:15.194Z,101811.22
2022-10-06T22:13:43.942Z,101807.72
2022-10-06T22:16:13.512Z,101809.59
2022-10-06T22:18:41.574Z,101804.50
2022-10-06T22:21:15.118Z,101807.28
2022-10-06T22:23:42.948Z,101814.25
2022-10-06T22:26:10.499Z,101807.44
2022-10-06T22:28:36.977Z,101817.09
2022-10-06T22:31:09.282Z,101807.78
2022-10-06T22:33:36.514Z,101802.69
2022-10-06T22:36:02.779Z,101797.59
2022-10-06T22:38:29.298Z,101802.97
2022-10-06T22:41:03.509Z,101783.38
2022-10-06T22:43:30.354Z,101774.38
2022-10-06T22:45:57.513Z,101795.66
2022-10-06T22:48:23.883Z,101790.56
2022-10-06T22:50:50.840Z,101775.44
2022-10-06T22:53:21.973Z,101790.00
2022-10-06T22:55:48.226Z,101791.88
2022-10-06T22:58:15.653Z,101791.03
2022-10-06T23:00:42.341Z,101791.25
2022-10-06T23:03:08.861Z,101785.22
2022-10-06T23:05:35.504Z,101784.38
2022-10-06T23:08:01.954Z,101782.75
2022-10-06T23:10:30.273Z,101782.13
2022-10-06T23:12:58.221Z,101783.06
2022-10-06T23:15:25.253Z,101765.16
2022-10-06T23:17:51.721Z,101784.22
2022-10-06T23:20:18.836Z,101786.06
2022-10-06T23:22:45.128Z,101775.19
2022-10-06T23:25:11.770Z,101787.81
2022-10-06T23:27:38.292Z,101779.19
2022-10-06T23:30:05.669Z,101782.72
2022-10-06T23:32:32.278Z,101759.59
2022-10-06T23:34:58.855Z,101775.81
2022-10-06T23:37:25.110Z,101775.84
2022-10-06T23:39:51.347Z,101778.47
2022-10-06T23:42:17.866Z,101778.56
2022-10-06T23:44:44.161Z,101778.56
2022-10-06T23:47:10.410Z,101769.16
2022-10-06T23:49:36.920Z,101782.94
2022-10-06T23:52:03.812Z,101771.56
2022-10-06T23:54:30.274Z,101777.81
2022-10-06T23:56:56.867Z,101764.84
2022-10-06T23:59:23.146Z,101751.94
